createdAt,value
2022-10-05T00:01:06.151Z,0.40
2022-10-05T00:03:37.300Z,0.40
2022-10-05T00:06:05.191Z,0.30
2022-10-05T00:08:38.368Z,0.30
2022-10-05T00:11:09.495Z,0.70
2022-10-05T00:13:37.587Z,0.35
2022-10-05T00:16:20.157Z,0.40
2022-10-05T00:18:50.552Z,0.57
2022-10-05T00:21:18.898Z,0.70
2022-10-05T00:23:48.179Z,0.35
2022-10-05T00:26:21.187Z,0.70
2022-10-05T00:28:49.156Z,0.50
2022-10-05T00:31:31.977Z,0.22
2022-10-05T00:34:02.953Z,1.38
2022-10-05T00:36:32.373Z,0.30
2022-10-05T00:39:01.676Z,0.40
2022-10-05T00:41:52.539Z,0.47
2022-10-05T00:44:31.916Z,0.30
2022-10-05T00:47:16.563Z,0.60
2022-10-05T00:49:53.618Z,0.52
2022-10-05T00:52:49.135Z,0.38
2022-10-05T00:55:28.550Z,0.45
2022-10-05T00:58:13.688Z,0.20
2022-10-05T01:00:55.829Z,0.20
2022-10-05T01:03:49.741Z,0.30
2022-10-05T01:06:43.913Z,0.10
2022-10-05T01:09:27.231Z,0.47
2022-10-05T01:12:01.098Z,0.45
2022-10-05T01:14:32.630Z,0.30
2022-10-05T01:17:11.814Z,0.63
2022-10-05T01:19:50.915Z,0.30
2022-10-05T01:22:49.788Z,0.30
2022-10-05T01:25:18.320Z,0.52
2022-10-05T01:27:46.139Z,0.30
2022-10-05T01:30:17.635Z,0.10
2022-10-05T01:32:45.568Z,0.32
2022-10-05T01:35:13.316Z,0.57
2022-10-05T01:37:52.803Z,0.20
2022-10-05T01:40:56.350Z,0.40
2022-10-05T01:43:32.046Z,0.30
2022-10-05T01:46:45.103Z,0.30
2022-10-05T01:51:49.409Z,0.32
2022-10-05T01:54:53.992Z,0.82
2022-10-05T01:57:59.029Z,0.30
2022-10-05T02:00:26.921Z,0.40
2022-10-05T02:03:03.408Z,0.25
2022-10-05T02:06:02.375Z,0.30
2022-10-05T02:08:47.765Z,0.40
2022-10-05T02:11:16.391Z,0.38
2022-10-05T02:13:53.347Z,0.32
2022-10-05T02:16:35.429Z,0.40
2022-10-05T02:19:14.856Z,0.20
2022-10-05T02:21:44.317Z,0.32
2022-10-05T02:24:15.079Z,0.25
2022-10-05T02:26:43.248Z,0.30
2022-10-05T02:29:14.622Z,0.28
2022-10-05T02:31:46.025Z,0.13
2022-10-05T02:34:31.726Z,0.43
2022-10-05T02:37:18.072Z,0.20
2022-10-05T02:39:48.986Z,0.40
2022-10-05T02:42:30.832Z,0.20
2022-10-05T02:45:05.989Z,0.30
2022-10-05T02:47:42.926Z,0.55
2022-10-05T02:50:20.032Z,0.32
2022-10-05T02:52:51.208Z,0.22
2022-10-05T02:55:31.264Z,0.40
2022-10-05T02:58:14.370Z,0.30
2022-10-05T03:00:57.442Z,0.40
2022-10-05T03:03:31.059Z,0.50
2022-10-05T03:06:04.864Z,0.32
2022-10-05T03:08:46.716Z,0.30
2022-10-05T03:11:15.047Z,0.50
2022-10-05T03:13:49.113Z,0.28
2022-10-05T03:16:29.680Z,0.57
2022-10-05T03:19:15.971Z,0.57
2022-10-05T03:21:52.429Z,0.45
2022-10-05T03:24:35.964Z,0.40
2022-10-05T03:27:45.063Z,0.47
2022-10-05T03:30:16.766Z,0.20
2022-10-05T03:33:03.048Z,0.30
2022-10-05T03:35:39.098Z,0.30
2022-10-05T03:38:07.033Z,0.50
2022-10-05T03:40:40.834Z,0.20
2022-10-05T03:43:21.238Z,0.40
2022-10-05T03:46:09.152Z,0.55
2022-10-05T03:48:51.063Z,0.20
2022-10-05T03:51:36.283Z,0.68
2022-10-05T03:54:30.323Z,0.30
2022-10-05T03:57:19.184Z,0.52
2022-10-05T03:59:54.263Z,0.25
2022-10-05T04:02:51.463Z,0.30
2022-10-05T04:05:36.415Z,0.30
2022-10-05T04:08:16.875Z,0.28
2022-10-05T04:10:50.422Z,0.40
2022-10-05T04:13:40.747Z,0.60
2022-10-05T04:16:08.514Z,0.40
2022-10-05T04:18:50.648Z,0.43
2022-10-05T04:21:30.656Z,0.82
2022-10-05T04:23:58.308Z,1.88
2022-10-05T04:26:41.400Z,0.40
2022-10-05T04:29:28.602Z,0.55
2022-10-05T04:32:37.002Z,0.30
2022-10-05T04:35:13.913Z,1.65
2022-10-05T04:37:45.762Z,0.75
2022-10-05T04:40:17.284Z,1.20
2022-10-05T04:43:10.657Z,0.20
2022-10-05T04:46:08.944Z,0.40
2022-10-05T04:48:44.893Z,0.32
2022-10-05T04:51:12.712Z,1.55
2022-10-05T04:53:40.443Z,0.80
2022-10-05T04:56:19.297Z,1.40
2022-10-05T04:59:03.910Z,4.53
2022-10-05T05:01:50.161Z,2.67
2022-10-05T05:04:52.000Z,1.08
2022-10-05T05:07:34.568Z,1.05
2022-10-05T05:12:51.618Z,1.98
2022-10-05T05:15:25.552Z,2.25
2022-10-05T05:18:01.479Z,1.70
2022-10-05T05:20:30.050Z,5.95
2022-10-05T05:23:28.027Z,2.35
2022-10-05T05:26:08.779Z,1.73
2022-10-05T05:28:41.093Z,3.20
2022-10-05T05:31:17.806Z,2.10
2022-10-05T05:34:17.824Z,3.00
2022-10-05T05:36:49.037Z,1.65
2022-10-05T05:39:30.855Z,4.00
2022-10-05T05:42:28.882Z,2.08
2022-10-05T05:45:03.629Z,2.20
2022-10-05T05:47:35.481Z,4.13
2022-10-05T05:50:09.626Z,2.92
2022-10-05T05:52:46.600Z,2.70
2022-10-05T05:55:17.848Z,3.35
2022-10-05T05:57:55.774Z,3.22
2022-10-05T06:00:27.375Z,7.18
2022-10-05T06:03:03.231Z,4.30
2022-10-05T06:05:45.699Z,2.92
2022-10-05T06:08:33.737Z,2.90
2022-10-05T06:11:11.784Z,3.58
2022-10-05T06:13:43.491Z,5.35
2022-10-05T06:16:18.881Z,5.32
2022-10-05T06:18:56.123Z,5.20
2022-10-05T06:21:30.131Z,9.75
2022-10-05T06:24:27.703Z,8.15
2022-10-05T06:26:58.662Z,6.88
2022-10-05T06:29:43.979Z,8.10
2022-10-05T06:32:21.350Z,7.07
2022-10-05T06:34:49.757Z,6.72
2022-10-05T06:37:39.983Z,9.48
2022-10-05T06:40:29.262Z,15.10
2022-10-05T06:43:03.399Z,10.52
2022-10-05T06:46:04.471Z,8.60
2022-10-05T06:51:24.124Z,9.52
2022-10-05T06:54:30.350Z,5.90
2022-10-05T06:57:10.348Z,6.05
2022-10-05T06:59:38.375Z,7.90
2022-10-05T07:02:27.890Z,8.90
2022-10-05T07:05:22.043Z,5.18
2022-10-05T07:08:01.556Z,6.80
2022-10-05T07:10:57.509Z,11.93
2022-10-05T07:13:34.355Z,11.25
2022-10-05T07:16:19.122Z,5.20
2022-10-05T07:19:16.812Z,7.95
2022-10-05T07:22:46.227Z,11.63
2022-10-05T07:25:21.895Z,10.93
2022-10-05T07:27:51.748Z,7.68
2022-10-05T07:33:02.485Z,6.90
2022-10-05T07:36:04.146Z,8.30
2022-10-05T07:38:43.864Z,8.13
2022-10-05T07:41:26.772Z,9.10
2022-10-05T07:44:27.540Z,8.20
2022-10-05T07:47:10.510Z,4.80
2022-10-05T07:50:20.122Z,6.00
2022-10-05T07:52:56.339Z,9.57
2022-10-05T07:58:21.015Z,8.38
2022-10-05T08:01:09.971Z,8.15
2022-10-05T08:03:40.126Z,10.45
2022-10-05T08:06:12.798Z,6.13
2022-10-05T08:08:50.259Z,10.35
2022-10-05T08:11:26.673Z,13.07
2022-10-05T08:14:06.670Z,5.25
2022-10-05T08:16:37.115Z,5.30
2022-10-05T08:19:26.905Z,11.75
2022-10-05T08:22:01.662Z,10.63
2022-10-05T08:24:47.770Z,13.60
2022-10-05T08:27:18.711Z,13.88
2022-10-05T08:30:09.348Z,9.40
2022-10-05T08:33:02.880Z,11.50
2022-10-05T08:35:44.027Z,9.38
2022-10-05T08:38:16.960Z,10.30
2022-10-05T08:41:00.240Z,10.18
2022-10-05T08:43:35.138Z,7.50
2022-10-05T08:46:17.866Z,10.93
2022-10-05T08:48:52.082Z,9.70
2022-10-05T08:51:19.835Z,11.55
2022-10-05T08:54:24.573Z,11.68
2022-10-05T08:57:05.210Z,6.93
2022-10-05T08:59:33.030Z,12.18
2022-10-05T09:02:30.636Z,7.90
2022-10-05T09:05:06.388Z,8.73
2022-10-05T09:07:37.378Z,9.00
2022-10-05T09:10:11.462Z,7.57
2022-10-05T09:13:16.947Z,11.07
2022-10-05T09:16:00.239Z,15.80
2022-10-05T09:18:46.846Z,12.82
2022-10-05T09:21:35.441Z,15.10
2022-10-05T09:26:53.904Z,10.77
2022-10-05T09:29:50.887Z,26.98
2022-10-05T09:32:42.134Z,16.30
2022-10-05T09:35:43.829Z,13.52
2022-10-05T09:38:59.052Z,14.02
2022-10-05T09:41:55.426Z,8.88
2022-10-05T09:44:36.766Z,18.00
2022-10-05T09:47:12.772Z,13.70
2022-10-05T09:49:46.557Z,18.95
2022-10-05T09:52:53.109Z,10.45
2022-10-05T09:55:21.110Z,19.80
2022-10-05T09:57:50.896Z,16.23
2022-10-05T10:00:58.708Z,12.43
2022-10-05T10:03:46.905Z,14.85
2022-10-05T10:06:14.801Z,19.10
2022-10-05T10:08:42.868Z,15.77
2022-10-05T10:11:16.187Z,10.65
2022-10-05T10:14:02.707Z,15.18
2022-10-05T10:16:33.601Z,13.77
2022-10-05T10:19:04.878Z,10.05
2022-10-05T10:21:50.852Z,12.07
2022-10-05T10:24:48.252Z,11.23
2022-10-05T10:27:34.441Z,26.67
2022-10-05T10:30:33.137Z,13.57
2022-10-05T10:33:18.122Z,15.73
2022-10-05T10:35:56.221Z,13.13
2022-10-05T10:38:43.054Z,9.35
2022-10-05T10:41:26.370Z,12.68
2022-10-05T10:44:11.282Z,23.65
2022-10-05T10:47:03.733Z,20.20
2022-10-05T10:49:44.378Z,18.08
2022-10-05T10:52:36.173Z,40.10
2022-10-05T10:55:10.348Z,39.33
2022-10-05T10:57:51.710Z,35.22
2022-10-05T11:00:22.770Z,38.20
2022-10-05T11:03:09.242Z,30.55
2022-10-05T11:06:10.903Z,33.25
2022-10-05T11:08:55.862Z,31.83
2022-10-05T11:11:45.048Z,32.58
2022-10-05T11:14:31.310Z,43.92
2022-10-05T11:17:24.494Z,27.75
2022-10-05T11:20:04.158Z,38.40
2022-10-05T11:22:54.540Z,33.33
2022-10-05T11:25:22.357Z,31.23
2022-10-05T11:28:25.113Z,29.40
2022-10-05T11:31:02.172Z,35.00
2022-10-05T11:33:45.936Z,23.38
2022-10-05T11:36:22.636Z,31.70
2022-10-05T11:38:59.777Z,29.38
2022-10-05T11:41:33.943Z,24.90
2022-10-05T11:44:06.135Z,30.23
2022-10-05T11:47:03.237Z,31.67
2022-10-05T11:49:42.928Z,35.50
2022-10-05T11:52:23.352Z,31.40
2022-10-05T11:55:26.012Z,31.95
2022-10-05T11:57:53.714Z,9.15
2022-10-05T12:00:22.893Z,18.83
2022-10-05T12:03:18.277Z,27.08
2022-10-05T12:06:07.711Z,18.65
2022-10-05T12:08:40.138Z,32.63
2022-10-05T12:11:43.172Z,27.75
2022-10-05T12:14:38.984Z,40.75
2022-10-05T12:17:12.851Z,24.40
2022-10-05T12:19:49.648Z,19.30
2022-10-05T12:22:20.495Z,12.35
2022-10-05T12:25:01.858Z,13.13
2022-10-05T12:27:37.174Z,14.98
2022-10-05T12:30:18.574Z,14.77
2022-10-05T12:33:09.816Z,24.45
2022-10-05T12:35:58.547Z,18.30
2022-10-05T12:38:40.847Z,12.15
2022-10-05T12:41:38.788Z,15.57
2022-10-05T12:44:45.221Z,28.73
2022-10-05T12:47:31.214Z,11.98
2022-10-05T12:50:06.349Z,23.58
2022-10-05T12:52:36.303Z,15.45
2022-10-05T12:55:06.434Z,17.30
2022-10-05T12:57:50.273Z,13.88
2022-10-05T13:00:22.965Z,10.95
2022-10-05T13:03:26.897Z,11.25
2022-10-05T13:06:16.037Z,11.02
2022-10-05T13:08:57.152Z,9.80
2022-10-05T13:11:33.213Z,11.27
2022-10-05T13:14:09.403Z,9.32
2022-10-05T13:19:33.852Z,15.50
2022-10-05T13:22:04.732Z,7.00
2022-10-05T13:24:52.595Z,9.32
2022-10-05T13:27:27.856Z,8.25
2022-10-05T13:30:03.297Z,8.55
2022-10-05T13:32:40.681Z,15.98
2022-10-05T13:35:46.110Z,12.75
2022-10-05T13:38:34.292Z,12.13
2022-10-05T13:41:11.898Z,9.93
2022-10-05T13:43:50.097Z,10.10
2022-10-05T13:46:18.420Z,10.10
2022-10-05T13:48:49.710Z,8.38
2022-10-05T13:51:20.446Z,10.55
2022-10-05T13:53:58.014Z,6.93
2022-10-05T13:56:34.406Z,9.50
2022-10-05T13:59:17.478Z,9.00
2022-10-05T14:01:54.449Z,6.47
2022-10-05T14:04:26.030Z,6.30
2022-10-05T14:06:54.053Z,5.40
2022-10-05T14:09:25.688Z,6.22
2022-10-05T14:12:05.769Z,6.97
2022-10-05T14:14:49.946Z,4.68
2022-10-05T14:17:43.452Z,6.18
2022-10-05T14:20:22.419Z,4.45
2022-10-05T14:22:54.863Z,4.13
2022-10-05T14:25:22.745Z,6.35
2022-10-05T14:27:57.411Z,3.92
2022-10-05T14:30:27.381Z,6.82
2022-10-05T14:33:08.559Z,8.02
2022-10-05T14:35:52.298Z,4.07
2022-10-05T14:38:31.350Z,5.85
2022-10-05T14:41:12.199Z,3.70
2022-10-05T14:43:51.064Z,3.92
2022-10-05T14:46:23.234Z,5.85
2022-10-05T14:49:13.712Z,6.22
2022-10-05T14:51:43.210Z,2.47
2022-10-05T14:54:29.733Z,5.20
2022-10-05T14:57:03.649Z,2.95
2022-10-05T14:59:40.867Z,5.10
2022-10-05T15:02:12.820Z,4.50
2022-10-05T15:04:47.362Z,5.38
2022-10-05T15:07:21.610Z,2.70
2022-10-05T15:09:55.669Z,3.05
2022-10-05T15:12:31.771Z,2.35
2022-10-05T15:15:25.914Z,4.82
2022-10-05T15:18:02.329Z,3.78
2022-10-05T15:20:43.502Z,3.33
2022-10-05T15:23:24.985Z,1.98
2022-10-05T15:26:02.032Z,2.42
2022-10-05T15:28:36.025Z,2.33
2022-10-05T15:31:33.439Z,3.92
2022-10-05T15:34:01.751Z,1.60
2022-10-05T15:36:29.516Z,1.85
2022-10-05T15:39:12.515Z,3.75
2022-10-05T15:41:52.979Z,1.15
2022-10-05T15:44:47.242Z,2.58
2022-10-05T15:47:26.690Z,2.92
2022-10-05T15:50:20.772Z,3.05
2022-10-05T15:52:54.279Z,1.20
2022-10-05T15:55:51.350Z,5.43
2022-10-05T15:58:31.424Z,2.03
2022-10-05T16:01:21.691Z,1.48
2022-10-05T16:03:58.447Z,1.20
2022-10-05T16:06:57.421Z,3.25
2022-10-05T16:09:25.305Z,1.45
2022-10-05T16:11:52.954Z,3.25
2022-10-05T16:14:20.817Z,1.67
2022-10-05T16:17:03.700Z,2.33
2022-10-05T16:19:40.118Z,1.85
2022-10-05T16:22:22.365Z,3.63
2022-10-05T16:25:11.579Z,2.08
2022-10-05T16:27:39.240Z,5.55
2022-10-05T16:30:10.745Z,2.53
2022-10-05T16:32:40.427Z,2.65
2022-10-05T16:35:16.899Z,2.08
2022-10-05T16:37:51.538Z,2.53
2022-10-05T16:40:28.594Z,2.22
2022-10-05T16:43:09.372Z,1.77
2022-10-05T16:45:45.681Z,2.00
2022-10-05T16:48:13.834Z,1.40
2022-10-05T16:50:57.419Z,2.10
2022-10-05T16:53:55.883Z,2.00
2022-10-05T16:56:25.313Z,3.40
2022-10-05T16:59:02.202Z,2.80
2022-10-05T17:01:42.015Z,4.78
2022-10-05T17:04:13.506Z,2.75
2022-10-05T17:06:47.270Z,2.55
2022-10-05T17:09:34.930Z,2.40
2022-10-05T17:12:21.215Z,2.33
2022-10-05T17:15:09.337Z,2.80
2022-10-05T17:18:00.757Z,3.45
2022-10-05T17:20:36.932Z,2.83
2022-10-05T17:23:43.178Z,3.28
2022-10-05T17:26:10.917Z,2.80
2022-10-05T17:29:15.968Z,4.28
2022-10-05T17:32:22.439Z,2.70
2022-10-05T17:35:00.590Z,2.95
2022-10-05T17:37:28.419Z,2.92
2022-10-05T17:39:57.841Z,2.83
2022-10-05T17:42:29.390Z,3.80
2022-10-05T17:45:02.715Z,4.30
2022-10-05T17:47:59.770Z,4.65
2022-10-05T17:51:04.034Z,4.47
2022-10-05T17:54:05.065Z,3.78
2022-10-05T17:59:07.586Z,5.40
2022-10-05T18:01:40.700Z,2.67
2022-10-05T18:04:16.405Z,3.10
2022-10-05T18:06:52.810Z,2.47
2022-10-05T18:09:23.558Z,4.00
2022-10-05T18:12:10.117Z,3.42
2022-10-05T18:15:14.208Z,2.22
2022-10-05T18:18:01.011Z,2.47
2022-10-05T18:20:34.867Z,1.77
2022-10-05T18:23:02.580Z,1.75
2022-10-05T18:25:33.508Z,3.20
2022-10-05T18:28:14.258Z,2.67
2022-10-05T18:30:42.088Z,3.13
2022-10-05T18:33:30.083Z,2.28
2022-10-05T18:36:37.541Z,2.30
2022-10-05T18:39:24.260Z,2.67
2022-10-05T18:41:57.983Z,4.13
2022-10-05T18:44:41.134Z,2.47
2022-10-05T18:47:27.884Z,2.65
2022-10-05T18:50:01.839Z,2.30
2022-10-05T18:53:06.802Z,2.28
2022-10-05T18:55:38.912Z,2.88
2022-10-05T18:58:19.182Z,4.95
2022-10-05T19:01:04.669Z,2.25
2022-10-05T19:03:55.671Z,2.65
2022-10-05T19:06:41.515Z,2.45
2022-10-05T19:09:21.520Z,2.50
2022-10-05T19:12:01.569Z,2.47
2022-10-05T19:14:35.306Z,2.78
2022-10-05T19:17:21.558Z,3.00
2022-10-05T19:19:57.541Z,2.92
2022-10-05T19:23:08.555Z,2.53
2022-10-05T19:25:48.535Z,2.33
2022-10-05T19:28:31.250Z,2.53
2022-10-05T19:31:05.343Z,2.75
2022-10-05T19:33:38.987Z,2.78
2022-10-05T19:36:28.761Z,2.20
2022-10-05T19:38:59.816Z,1.95
2022-10-05T19:41:46.602Z,2.33
2022-10-05T19:44:32.598Z,2.67
2022-10-05T19:47:17.720Z,2.63
2022-10-05T19:49:45.358Z,3.10
2022-10-05T19:52:21.365Z,2.35
2022-10-05T19:54:52.737Z,2.22
2022-10-05T19:57:21.197Z,1.33
2022-10-05T19:59:49.114Z,1.42
2022-10-05T20:02:17.890Z,1.30
2022-10-05T20:04:49.630Z,1.35
2022-10-05T20:07:21.958Z,1.85
2022-10-05T20:09:59.827Z,1.45
2022-10-05T20:12:53.716Z,1.48
2022-10-05T20:15:41.438Z,1.33
2022-10-05T20:19:01.084Z,2.42
2022-10-05T20:24:32.151Z,2.03
2022-10-05T20:27:06.950Z,1.40
2022-10-05T20:29:42.617Z,1.30
2022-10-05T20:32:18.744Z,2.13
2022-10-05T20:34:50.158Z,1.98
2022-10-05T20:37:20.399Z,2.05
2022-10-05T20:39:50.814Z,1.95
2022-10-05T20:42:21.391Z,2.13
2022-10-05T20:44:52.906Z,1.70
2022-10-05T20:47:24.090Z,1.73
2022-10-05T20:49:53.484Z,2.30
2022-10-05T20:52:21.230Z,1.60
2022-10-05T20:54:54.017Z,1.75
2022-10-05T20:57:24.066Z,1.35
2022-10-05T20:59:52.070Z,1.20
2022-10-05T21:02:20.015Z,1.17
2022-10-05T21:04:47.921Z,0.85
2022-10-05T21:07:19.962Z,0.90
2022-10-05T21:09:47.898Z,1.25
2022-10-05T21:12:19.002Z,1.30
2022-10-05T21:14:47.584Z,0.88
2022-10-05T21:17:15.833Z,2.72
2022-10-05T21:19:43.799Z,1.35
2022-10-05T21:22:11.927Z,1.98
2022-10-05T21:24:41.046Z,1.05
2022-10-05T21:27:09.717Z,1.45
2022-10-05T21:29:37.712Z,0.80
2022-10-05T21:32:08.770Z,1.05
2022-10-05T21:34:37.218Z,1.10
2022-10-05T21:37:09.016Z,1.48
2022-10-05T21:39:37.051Z,1.27
2022-10-05T21:42:05.127Z,1.48
2022-10-05T21:44:33.310Z,1.02
2022-10-05T21:47:01.278Z,1.60
2022-10-05T21:49:29.242Z,1.25
2022-10-05T21:51:57.346Z,1.20
2022-10-05T21:54:25.337Z,1.23
2022-10-05T21:56:55.542Z,1.98
2022-10-05T21:59:25.560Z,1.13
2022-10-05T22:04:21.339Z,1.02
2022-10-05T22:06:49.373Z,0.90
2022-10-05T22:09:17.534Z,1.00
2022-10-05T22:11:48.001Z,0.98
2022-10-05T22:14:18.053Z,1.05
2022-10-05T22:19:19.369Z,0.95
2022-10-05T22:21:47.200Z,0.80
2022-10-05T22:24:15.024Z,0.68
2022-10-05T22:26:44.137Z,0.93
2022-10-05T22:29:12.024Z,0.80
2022-10-05T22:31:40.555Z,1.02
2022-10-05T22:34:08.866Z,1.20
2022-10-05T22:36:37.580Z,0.88
2022-10-05T22:39:05.479Z,1.05
2022-10-05T22:41:33.323Z,1.10
2022-10-05T22:44:01.591Z,0.80
2022-10-05T22:46:29.546Z,0.90
2022-10-05T22:48:57.614Z,0.60
2022-10-05T22:51:25.557Z,1.60
2022-10-05T22:53:53.498Z,1.55
2022-10-05T22:56:21.359Z,1.30
2022-10-05T22:58:49.965Z,1.00
2022-10-05T23:01:18.903Z,0.93
2022-10-05T23:03:46.855Z,1.08
2022-10-05T23:06:17.779Z,1.33
2022-10-05T23:08:46.207Z,1.13
2022-10-05T23:11:16.571Z,0.77
2022-10-05T23:13:44.553Z,1.30
2022-10-05T23:16:13.467Z,1.25
2022-10-05T23:18:41.358Z,0.88
2022-10-05T23:21:09.944Z,0.80
2022-10-05T23:23:38.424Z,1.00
2022-10-05T23:26:06.917Z,1.48
2022-10-05T23:28:35.613Z,1.15
2022-10-05T23:31:07.293Z,1.42
2022-10-05T23:33:36.110Z,0.80
2022-10-05T23:36:07.595Z,1.98
2022-10-05T23:38:36.018Z,0.52
2022-10-05T23:41:04.277Z,1.73
2022-10-05T23:43:33.492Z,0.82
2022-10-05T23:46:01.792Z,0.80
2022-10-05T23:48:30.826Z,0.70
2022-10-05T23:51:00.091Z,0.93
2022-10-05T23:53:27.933Z,0.73
2022-10-05T23:55:56.341Z,1.15
2022-10-05T23:58:24.788Z,1.00
